sensor_id;sensor_type;location;lat;lon;timestamp;P1;durP1;ratioP1;P2;durP2;ratioP2
7575;SDS011;3829;50.798;4.358;2022-12-08T00:02:15;38.20;;;20.53;;
7575;SDS011;3829;50.798;4.358;2022-12-08T00:04:41;33.97;;;19.90;;
7575;SDS011;3829;50.798;4.358;2022-12-08T00:07:26;37.63;;;19.17;;
7575;SDS011;3829;50.798;4.358;2022-12-08T00:10:10;36.83;;;20.73;;
7575;SDS011;3829;50.798;4.358;2022-12-08T00:12:36;35.73;;;19.20;;
7575;SDS011;3829;50.798;4.358;2022-12-08T00:15:01;40.40;;;19.90;;
7575;SDS011;3829;50.798;4.358;2022-12-08T00:17:27;32.23;;;18.67;;
7575;SDS011;3829;50.798;4.358;2022-12-08T00:19:53;40.77;;;20.17;;
7575;SDS011;3829;50.798;4.358;2022-12-08T00:22:18;33.57;;;19.17;;
7575;SDS011;3829;50.798;4.358;2022-12-08T00:24:44;35.30;;;18.93;;
7575;SDS011;3829;50.798;4.358;2022-12-08T00:27:10;37.40;;;19.57;;
7575;SDS011;3829;50.798;4.358;2022-12-08T00:29:38;35.70;;;18.57;;
7575;SDS011;3829;50.798;4.358;2022-12-08T00:32:04;36.03;;;19.47;;
7575;SDS011;3829;50.798;4.358;2022-12-08T00:34:30;35.30;;;19.33;;
7575;SDS011;3829;50.798;4.358;2022-12-08T00:36:56;36.30;;;18.73;;
7575;SDS011;3829;50.798;4.358;2022-12-08T00:39:22;31.93;;;17.97;;
7575;SDS011;3829;50.798;4.358;2022-12-08T00:41:47;30.00;;;18.43;;
7575;SDS011;3829;50.798;4.358;2022-12-08T00:44:32;41.10;;;18.57;;
7575;SDS011;3829;50.798;4.358;2022-12-08T00:46:58;35.83;;;18.73;;
7575;SDS011;3829;50.798;4.358;2022-12-08T00:49:23;33.03;;;18.93;;
7575;SDS011;3829;50.798;4.358;2022-12-08T00:51:49;34.77;;;20.20;;
7575;SDS011;3829;50.798;4.358;2022-12-08T00:54:16;34.23;;;19.10;;
7575;SDS011;3829;50.798;4.358;2022-12-08T00:56:42;30.70;;;18.80;;
7575;SDS011;3829;50.798;4.358;2022-12-08T00:59:07;39.30;;;20.30;;
7575;SDS011;3829;50.798;4.358;2022-12-08T01:01:33;33.10;;;18.63;;
7575;SDS011;3829;50.798;4.358;2022-12-08T01:04:05;37.37;;;20.70;;
7575;SDS011;3829;50.798;4.358;2022-12-08T01:06:33;33.70;;;19.27;;
7575;SDS011;3829;50.798;4.358;2022-12-08T01:09:00;41.33;;;20.13;;
7575;SDS011;3829;50.798;4.358;2022-12-08T01:11:27;37.03;;;19.83;;
7575;SDS011;3829;50.798;4.358;2022-12-08T01:13:52;41.10;;;20.93;;
7575;SDS011;3829;50.798;4.358;2022-12-08T01:16:23;37.60;;;19.80;;
7575;SDS011;3829;50.798;4.358;2022-12-08T01:18:53;39.97;;;20.33;;
7575;SDS011;3829;50.798;4.358;2022-12-08T01:21:18;43.77;;;21.17;;
7575;SDS011;3829;50.798;4.358;2022-12-08T01:23:44;36.30;;;20.77;;
7575;SDS011;3829;50.798;4.358;2022-12-08T01:26:11;47.70;;;22.93;;
7575;SDS011;3829;50.798;4.358;2022-12-08T01:28:38;50.00;;;22.77;;
7575;SDS011;3829;50.798;4.358;2022-12-08T01:31:04;48.53;;;23.30;;
7575;SDS011;3829;50.798;4.358;2022-12-08T01:33:34;43.83;;;22.90;;
7575;SDS011;3829;50.798;4.358;2022-12-08T01:36:03;47.33;;;22.97;;
7575;SDS011;3829;50.798;4.358;2022-12-08T01:38:29;51.70;;;23.80;;
7575;SDS011;3829;50.798;4.358;2022-12-08T01:40:56;52.23;;;24.03;;
7575;SDS011;3829;50.798;4.358;2022-12-08T01:43:21;57.37;;;24.07;;
7575;SDS011;3829;50.798;4.358;2022-12-08T01:45:48;47.43;;;23.90;;
7575;SDS011;3829;50.798;4.358;2022-12-08T01:48:23;60.07;;;24.60;;
7575;SDS011;3829;50.798;4.358;2022-12-08T01:50:51;52.27;;;24.17;;
7575;SDS011;3829;50.798;4.358;2022-12-08T01:53:23;56.97;;;25.53;;
7575;SDS011;3829;50.798;4.358;2022-12-08T01:55:54;47.30;;;25.20;;
7575;SDS011;3829;50.798;4.358;2022-12-08T01:58:24;50.10;;;24.97;;
7575;SDS011;3829;50.798;4.358;2022-12-08T02:00:58;55.17;;;25.50;;
7575;SDS011;3829;50.798;4.358;2022-12-08T02:03:26;46.03;;;25.90;;
7575;SDS011;3829;50.798;4.358;2022-12-08T02:05:55;52.73;;;25.47;;
7575;SDS011;3829;50.798;4.358;2022-12-08T02:08:22;50.73;;;24.83;;
7575;SDS011;3829;50.798;4.358;2022-12-08T02:10:48;50.90;;;24.23;;
7575;SDS011;3829;50.798;4.358;2022-12-08T02:13:16;45.47;;;24.23;;
7575;SDS011;3829;50.798;4.358;2022-12-08T02:15:48;48.57;;;24.87;;
7575;SDS011;3829;50.798;4.358;2022-12-08T02:21:14;44.20;;;23.93;;
7575;SDS011;3829;50.798;4.358;2022-12-08T02:24:06;48.67;;;24.00;;
7575;SDS011;3829;50.798;4.358;2022-12-08T02:26:42;45.40;;;25.73;;
7575;SDS011;3829;50.798;4.358;2022-12-08T02:35:35;50.37;;;23.80;;
7575;SDS011;3829;50.798;4.358;2022-12-08T02:38:24;45.50;;;22.87;;
7575;SDS011;3829;50.798;4.358;2022-12-08T02:46:10;53.83;;;25.47;;
7575;SDS011;3829;50.798;4.358;2022-12-08T02:48:43;51.13;;;25.97;;
7575;SDS011;3829;50.798;4.358;2022-12-08T02:51:09;46.33;;;23.80;;
7575;SDS011;3829;50.798;4.358;2022-12-08T02:53:34;51.33;;;25.93;;
7575;SDS011;3829;50.798;4.358;2022-12-08T02:58:41;48.27;;;24.07;;
7575;SDS011;3829;50.798;4.358;2022-12-08T03:03:58;50.23;;;22.93;;
7575;SDS011;3829;50.798;4.358;2022-12-08T03:06:34;54.53;;;23.60;;
7575;SDS011;3829;50.798;4.358;2022-12-08T03:14:17;44.00;;;23.13;;
7575;SDS011;3829;50.798;4.358;2022-12-08T03:16:46;40.87;;;22.80;;
7575;SDS011;3829;50.798;4.358;2022-12-08T03:19:20;43.13;;;21.23;;
7575;SDS011;3829;50.798;4.358;2022-12-08T03:21:58;54.70;;;22.57;;
7575;SDS011;3829;50.798;4.358;2022-12-08T03:24:32;44.93;;;21.50;;
7575;SDS011;3829;50.798;4.358;2022-12-08T03:27:01;46.20;;;22.73;;
7575;SDS011;3829;50.798;4.358;2022-12-08T03:29:29;51.10;;;21.83;;
7575;SDS011;3829;50.798;4.358;2022-12-08T03:31:57;44.20;;;22.57;;
7575;SDS011;3829;50.798;4.358;2022-12-08T03:34:27;38.17;;;21.83;;
7575;SDS011;3829;50.798;4.358;2022-12-08T03:36:54;41.60;;;21.60;;
7575;SDS011;3829;50.798;4.358;2022-12-08T03:39:20;47.77;;;22.07;;
7575;SDS011;3829;50.798;4.358;2022-12-08T03:41:46;41.50;;;21.83;;
7575;SDS011;3829;50.798;4.358;2022-12-08T03:44:11;39.43;;;20.90;;
7575;SDS011;3829;50.798;4.358;2022-12-08T03:46:37;43.33;;;20.80;;
7575;SDS011;3829;50.798;4.358;2022-12-08T03:49:03;36.60;;;20.80;;
7575;SDS011;3829;50.798;4.358;2022-12-08T03:51:28;43.80;;;20.60;;
7575;SDS011;3829;50.798;4.358;2022-12-08T03:53:54;44.90;;;21.53;;
7575;SDS011;3829;50.798;4.358;2022-12-08T03:58:52;38.13;;;20.80;;
7575;SDS011;3829;50.798;4.358;2022-12-08T04:01:18;39.97;;;20.50;;
7575;SDS011;3829;50.798;4.358;2022-12-08T04:03:44;41.67;;;21.87;;
7575;SDS011;3829;50.798;4.358;2022-12-08T04:06:10;47.20;;;20.40;;
7575;SDS011;3829;50.798;4.358;2022-12-08T04:08:35;36.93;;;19.90;;
7575;SDS011;3829;50.798;4.358;2022-12-08T04:11:01;39.57;;;20.20;;
7575;SDS011;3829;50.798;4.358;2022-12-08T04:13:27;42.40;;;19.73;;
7575;SDS011;3829;50.798;4.358;2022-12-08T04:15:52;32.77;;;18.33;;
7575;SDS011;3829;50.798;4.358;2022-12-08T04:18:18;39.07;;;21.27;;
7575;SDS011;3829;50.798;4.358;2022-12-08T04:20:44;41.43;;;19.53;;
7575;SDS011;3829;50.798;4.358;2022-12-08T04:23:10;34.90;;;19.33;;
7575;SDS011;3829;50.798;4.358;2022-12-08T04:25:36;34.90;;;18.47;;
7575;SDS011;3829;50.798;4.358;2022-12-08T04:28:03;35.93;;;19.57;;
7575;SDS011;3829;50.798;4.358;2022-12-08T04:30:29;40.47;;;21.03;;
7575;SDS011;3829;50.798;4.358;2022-12-08T04:32:54;37.63;;;19.90;;
7575;SDS011;3829;50.798;4.358;2022-12-08T04:35:20;38.03;;;21.47;;
7575;SDS011;3829;50.798;4.358;2022-12-08T04:37:46;40.00;;;20.87;;
7575;SDS011;3829;50.798;4.358;2022-12-08T04:40:12;43.77;;;21.00;;
7575;SDS011;3829;50.798;4.358;2022-12-08T04:42:38;49.60;;;21.60;;
7575;SDS011;3829;50.798;4.358;2022-12-08T04:45:03;44.07;;;21.47;;
7575;SDS011;3829;50.798;4.358;2022-12-08T04:47:30;38.67;;;20.73;;
7575;SDS011;3829;50.798;4.358;2022-12-08T04:49:55;45.80;;;21.73;;
7575;SDS011;3829;50.798;4.358;2022-12-08T04:52:21;38.73;;;21.40;;
7575;SDS011;3829;50.798;4.358;2022-12-08T04:54:47;41.20;;;20.73;;
7575;SDS011;3829;50.798;4.358;2022-12-08T04:57:12;38.07;;;20.00;;
7575;SDS011;3829;50.798;4.358;2022-12-08T04:59:38;45.10;;;21.47;;
7575;SDS011;3829;50.798;4.358;2022-12-08T05:02:04;38.10;;;20.53;;
7575;SDS011;3829;50.798;4.358;2022-12-08T05:04:30;37.53;;;20.13;;
7575;SDS011;3829;50.798;4.358;2022-12-08T05:06:55;38.53;;;19.83;;
7575;SDS011;3829;50.798;4.358;2022-12-08T05:09:21;36.90;;;19.00;;
7575;SDS011;3829;50.798;4.358;2022-12-08T05:11:47;37.43;;;18.40;;
7575;SDS011;3829;50.798;4.358;2022-12-08T05:14:13;32.63;;;18.53;;
7575;SDS011;3829;50.798;4.358;2022-12-08T05:16:39;41.10;;;19.53;;
7575;SDS011;3829;50.798;4.358;2022-12-08T05:19:06;37.23;;;20.43;;
7575;SDS011;3829;50.798;4.358;2022-12-08T05:21:32;41.67;;;20.30;;
7575;SDS011;3829;50.798;4.358;2022-12-08T05:23:58;38.93;;;18.13;;
7575;SDS011;3829;50.798;4.358;2022-12-08T05:26:24;37.37;;;18.60;;
7575;SDS011;3829;50.798;4.358;2022-12-08T05:28:50;35.60;;;17.93;;
7575;SDS011;3829;50.798;4.358;2022-12-08T05:31:15;35.10;;;18.60;;
7575;SDS011;3829;50.798;4.358;2022-12-08T05:33:41;36.30;;;18.77;;
7575;SDS011;3829;50.798;4.358;2022-12-08T05:36:09;40.93;;;17.93;;
7575;SDS011;3829;50.798;4.358;2022-12-08T05:38:37;35.90;;;18.07;;
7575;SDS011;3829;50.798;4.358;2022-12-08T05:41:08;33.63;;;17.57;;
7575;SDS011;3829;50.798;4.358;2022-12-08T05:43:34;35.43;;;18.20;;
7575;SDS011;3829;50.798;4.358;2022-12-08T05:46:00;29.67;;;16.53;;
7575;SDS011;3829;50.798;4.358;2022-12-08T05:48:26;35.40;;;17.83;;
7575;SDS011;3829;50.798;4.358;2022-12-08T05:50:51;37.30;;;17.30;;
7575;SDS011;3829;50.798;4.358;2022-12-08T05:53:18;31.97;;;17.00;;
7575;SDS011;3829;50.798;4.358;2022-12-08T05:55:44;32.67;;;16.70;;
7575;SDS011;3829;50.798;4.358;2022-12-08T05:58:12;43.23;;;17.77;;
7575;SDS011;3829;50.798;4.358;2022-12-08T06:00:39;31.47;;;17.00;;
7575;SDS011;3829;50.798;4.358;2022-12-08T06:03:06;40.03;;;17.00;;
7575;SDS011;3829;50.798;4.358;2022-12-08T06:05:32;31.97;;;16.63;;
7575;SDS011;3829;50.798;4.358;2022-12-08T06:07:58;36.70;;;17.27;;
7575;SDS011;3829;50.798;4.358;2022-12-08T06:10:24;34.70;;;17.37;;
7575;SDS011;3829;50.798;4.358;2022-12-08T06:12:49;28.20;;;16.97;;
7575;SDS011;3829;50.798;4.358;2022-12-08T06:15:15;35.67;;;18.10;;
7575;SDS011;3829;50.798;4.358;2022-12-08T06:17:41;31.57;;;15.27;;
7575;SDS011;3829;50.798;4.358;2022-12-08T06:20:06;35.67;;;16.03;;
7575;SDS011;3829;50.798;4.358;2022-12-08T06:22:33;35.47;;;15.83;;
7575;SDS011;3829;50.798;4.358;2022-12-08T06:24:59;38.20;;;16.13;;
7575;SDS011;3829;50.798;4.358;2022-12-08T06:27:24;35.03;;;15.97;;
7575;SDS011;3829;50.798;4.358;2022-12-08T06:29:50;29.80;;;15.87;;
7575;SDS011;3829;50.798;4.358;2022-12-08T06:32:17;30.53;;;15.57;;
7575;SDS011;3829;50.798;4.358;2022-12-08T06:34:43;29.03;;;14.43;;
7575;SDS011;3829;50.798;4.358;2022-12-08T06:37:08;32.50;;;15.20;;
7575;SDS011;3829;50.798;4.358;2022-12-08T06:39:34;28.23;;;15.80;;
7575;SDS011;3829;50.798;4.358;2022-12-08T06:42:00;30.67;;;15.33;;
7575;SDS011;3829;50.798;4.358;2022-12-08T06:44:44;29.17;;;14.13;;
7575;SDS011;3829;50.798;4.358;2022-12-08T06:47:09;30.77;;;15.40;;
7575;SDS011;3829;50.798;4.358;2022-12-08T06:49:35;31.37;;;16.00;;
7575;SDS011;3829;50.798;4.358;2022-12-08T06:52:00;29.83;;;14.67;;
7575;SDS011;3829;50.798;4.358;2022-12-08T06:54:26;30.03;;;14.93;;
7575;SDS011;3829;50.798;4.358;2022-12-08T06:56:52;30.30;;;13.77;;
7575;SDS011;3829;50.798;4.358;2022-12-08T06:59:17;27.20;;;14.70;;
7575;SDS011;3829;50.798;4.358;2022-12-08T07:01:43;30.37;;;14.70;;
7575;SDS011;3829;50.798;4.358;2022-12-08T07:04:09;30.63;;;14.27;;
7575;SDS011;3829;50.798;4.358;2022-12-08T07:06:35;32.17;;;14.53;;
7575;SDS011;3829;50.798;4.358;2022-12-08T07:09:01;34.97;;;16.27;;
7575;SDS011;3829;50.798;4.358;2022-12-08T07:11:27;31.77;;;14.30;;
7575;SDS011;3829;50.798;4.358;2022-12-08T07:13:54;31.57;;;14.67;;
7575;SDS011;3829;50.798;4.358;2022-12-08T07:16:21;30.43;;;14.27;;
7575;SDS011;3829;50.798;4.358;2022-12-08T07:18:47;26.03;;;13.67;;
7575;SDS011;3829;50.798;4.358;2022-12-08T07:21:13;36.90;;;15.07;;
7575;SDS011;3829;50.798;4.358;2022-12-08T07:23:40;27.90;;;14.93;;
7575;SDS011;3829;50.798;4.358;2022-12-08T07:26:06;31.63;;;14.93;;
7575;SDS011;3829;50.798;4.358;2022-12-08T07:28:35;29.63;;;14.90;;
7575;SDS011;3829;50.798;4.358;2022-12-08T07:31:02;34.57;;;15.67;;
7575;SDS011;3829;50.798;4.358;2022-12-08T07:33:28;30.83;;;14.10;;
7575;SDS011;3829;50.798;4.358;2022-12-08T07:35:55;29.17;;;14.97;;
7575;SDS011;3829;50.798;4.358;2022-12-08T07:38:26;29.57;;;13.83;;
7575;SDS011;3829;50.798;4.358;2022-12-08T07:40:52;28.53;;;14.27;;
7575;SDS011;3829;50.798;4.358;2022-12-08T07:43:18;29.27;;;15.07;;
7575;SDS011;3829;50.798;4.358;2022-12-08T07:45:45;37.60;;;14.67;;
7575;SDS011;3829;50.798;4.358;2022-12-08T07:48:11;27.33;;;16.07;;
7575;SDS011;3829;50.798;4.358;2022-12-08T07:50:37;27.03;;;13.60;;
7575;SDS011;3829;50.798;4.358;2022-12-08T07:53:02;31.80;;;14.60;;
7575;SDS011;3829;50.798;4.358;2022-12-08T07:55:28;28.90;;;15.03;;
7575;SDS011;3829;50.798;4.358;2022-12-08T07:57:54;31.97;;;14.70;;
7575;SDS011;3829;50.798;4.358;2022-12-08T08:00:19;30.83;;;15.53;;
7575;SDS011;3829;50.798;4.358;2022-12-08T08:02:45;30.97;;;15.10;;
7575;SDS011;3829;50.798;4.358;2022-12-08T08:05:11;29.63;;;14.70;;
7575;SDS011;3829;50.798;4.358;2022-12-08T08:07:37;34.00;;;15.90;;
7575;SDS011;3829;50.798;4.358;2022-12-08T08:10:06;36.20;;;16.70;;
7575;SDS011;3829;50.798;4.358;2022-12-08T08:12:32;26.53;;;14.60;;
7575;SDS011;3829;50.798;4.358;2022-12-08T08:15:01;30.30;;;15.80;;
7575;SDS011;3829;50.798;4.358;2022-12-08T08:17:29;37.40;;;17.50;;
7575;SDS011;3829;50.798;4.358;2022-12-08T08:19:54;30.50;;;16.63;;
7575;SDS011;3829;50.798;4.358;2022-12-08T08:22:20;32.53;;;15.70;;
7575;SDS011;3829;50.798;4.358;2022-12-08T08:24:46;30.93;;;16.33;;
7575;SDS011;3829;50.798;4.358;2022-12-08T08:27:12;29.67;;;15.40;;
7575;SDS011;3829;50.798;4.358;2022-12-08T08:29:38;29.80;;;15.60;;
7575;SDS011;3829;50.798;4.358;2022-12-08T08:32:03;32.00;;;16.83;;
7575;SDS011;3829;50.798;4.358;2022-12-08T08:34:29;38.30;;;15.60;;
7575;SDS011;3829;50.798;4.358;2022-12-08T08:36:55;33.00;;;15.50;;
7575;SDS011;3829;50.798;4.358;2022-12-08T08:39:20;35.53;;;15.00;;
7575;SDS011;3829;50.798;4.358;2022-12-08T08:41:46;33.67;;;15.70;;
7575;SDS011;3829;50.798;4.358;2022-12-08T08:44:13;29.50;;;15.90;;
7575;SDS011;3829;50.798;4.358;2022-12-08T08:46:39;31.47;;;16.23;;
7575;SDS011;3829;50.798;4.358;2022-12-08T08:49:05;32.97;;;15.80;;
7575;SDS011;3829;50.798;4.358;2022-12-08T08:51:31;29.53;;;17.07;;
7575;SDS011;3829;50.798;4.358;2022-12-08T08:53:57;30.83;;;16.10;;
7575;SDS011;3829;50.798;4.358;2022-12-08T08:56:23;35.80;;;15.90;;
7575;SDS011;3829;50.798;4.358;2022-12-08T08:58:50;30.50;;;15.60;;
7575;SDS011;3829;50.798;4.358;2022-12-08T09:01:21;36.30;;;15.50;;
7575;SDS011;3829;50.798;4.358;2022-12-08T09:03:51;36.67;;;16.50;;
7575;SDS011;3829;50.798;4.358;2022-12-08T09:06:17;39.03;;;16.87;;
7575;SDS011;3829;50.798;4.358;2022-12-08T09:08:44;32.37;;;16.23;;
7575;SDS011;3829;50.798;4.358;2022-12-08T09:11:10;36.60;;;16.17;;
7575;SDS011;3829;50.798;4.358;2022-12-08T09:13:36;31.13;;;15.57;;
7575;SDS011;3829;50.798;4.358;2022-12-08T09:16:03;34.57;;;15.90;;
7575;SDS011;3829;50.798;4.358;2022-12-08T09:18:30;28.63;;;15.97;;
7575;SDS011;3829;50.798;4.358;2022-12-08T09:21:02;28.20;;;13.50;;
7575;SDS011;3829;50.798;4.358;2022-12-08T09:23:32;31.07;;;15.73;;
7575;SDS011;3829;50.798;4.358;2022-12-08T09:25:58;38.63;;;16.13;;
7575;SDS011;3829;50.798;4.358;2022-12-08T09:28:24;42.80;;;15.57;;
7575;SDS011;3829;50.798;4.358;2022-12-08T09:30:49;38.43;;;16.00;;
7575;SDS011;3829;50.798;4.358;2022-12-08T09:33:16;33.57;;;16.10;;
7575;SDS011;3829;50.798;4.358;2022-12-08T09:35:41;36.93;;;15.13;;
7575;SDS011;3829;50.798;4.358;2022-12-08T09:38:07;34.60;;;16.13;;
7575;SDS011;3829;50.798;4.358;2022-12-08T09:40:35;34.83;;;14.77;;
7575;SDS011;3829;50.798;4.358;2022-12-08T09:45:40;29.50;;;14.30;;
7575;SDS011;3829;50.798;4.358;2022-12-08T09:48:11;29.20;;;14.07;;
7575;SDS011;3829;50.798;4.358;2022-12-08T09:50:48;35.20;;;14.50;;
7575;SDS011;3829;50.798;4.358;2022-12-08T09:56:03;31.47;;;14.03;;
7575;SDS011;3829;50.798;4.358;2022-12-08T10:01:21;27.80;;;13.40;;
7575;SDS011;3829;50.798;4.358;2022-12-08T10:03:52;31.13;;;14.23;;
7575;SDS011;3829;50.798;4.358;2022-12-08T10:11:43;25.73;;;12.90;;
7575;SDS011;3829;50.798;4.358;2022-12-08T10:17:34;28.73;;;13.33;;
7575;SDS011;3829;50.798;4.358;2022-12-08T10:22:43;29.97;;;13.63;;
7575;SDS011;3829;50.798;4.358;2022-12-08T10:27:43;32.63;;;14.53;;
7575;SDS011;3829;50.798;4.358;2022-12-08T10:30:14;26.63;;;14.33;;
7575;SDS011;3829;50.798;4.358;2022-12-08T10:32:43;28.63;;;13.87;;
7575;SDS011;3829;50.798;4.358;2022-12-08T10:35:13;31.00;;;12.80;;
7575;SDS011;3829;50.798;4.358;2022-12-08T10:37:53;30.23;;;13.77;;
7575;SDS011;3829;50.798;4.358;2022-12-08T10:40:21;27.00;;;14.27;;
7575;SDS011;3829;50.798;4.358;2022-12-08T10:42:52;31.87;;;14.50;;
7575;SDS011;3829;50.798;4.358;2022-12-08T10:45:24;23.20;;;12.63;;
7575;SDS011;3829;50.798;4.358;2022-12-08T10:48:03;23.13;;;12.63;;
7575;SDS011;3829;50.798;4.358;2022-12-08T10:50:45;24.40;;;12.23;;
7575;SDS011;3829;50.798;4.358;2022-12-08T10:53:19;25.07;;;12.90;;
7575;SDS011;3829;50.798;4.358;2022-12-08T10:58:24;26.07;;;13.00;;
7575;SDS011;3829;50.798;4.358;2022-12-08T11:00:57;26.70;;;13.80;;
7575;SDS011;3829;50.798;4.358;2022-12-08T11:03:32;27.93;;;12.63;;
7575;SDS011;3829;50.798;4.358;2022-12-08T11:06:12;26.00;;;12.87;;
7575;SDS011;3829;50.798;4.358;2022-12-08T11:08:59;26.03;;;14.30;;
7575;SDS011;3829;50.798;4.358;2022-12-08T11:11:38;27.53;;;12.90;;
7575;SDS011;3829;50.798;4.358;2022-12-08T11:14:12;31.00;;;13.47;;
7575;SDS011;3829;50.798;4.358;2022-12-08T11:16:51;22.53;;;12.80;;
7575;SDS011;3829;50.798;4.358;2022-12-08T11:19:38;28.33;;;12.47;;
7575;SDS011;3829;50.798;4.358;2022-12-08T11:27:39;25.83;;;13.03;;
7575;SDS011;3829;50.798;4.358;2022-12-08T11:30:21;23.00;;;10.37;;
7575;SDS011;3829;50.798;4.358;2022-12-08T11:32:51;20.77;;;11.90;;
7575;SDS011;3829;50.798;4.358;2022-12-08T11:35:36;25.70;;;12.23;;
7575;SDS011;3829;50.798;4.358;2022-12-08T11:38:11;21.13;;;11.50;;
7575;SDS011;3829;50.798;4.358;2022-12-08T11:40:41;27.60;;;11.67;;
7575;SDS011;3829;50.798;4.358;2022-12-08T11:46:00;20.97;;;11.30;;
7575;SDS011;3829;50.798;4.358;2022-12-08T11:48:32;21.90;;;9.90;;
7575;SDS011;3829;50.798;4.358;2022-12-08T11:51:20;21.97;;;11.70;;
7575;SDS011;3829;50.798;4.358;2022-12-08T11:56:32;20.37;;;10.37;;
7575;SDS011;3829;50.798;4.358;2022-12-08T12:02:03;19.77;;;10.10;;
7575;SDS011;3829;50.798;4.358;2022-12-08T12:18:10;21.77;;;10.00;;
7575;SDS011;3829;50.798;4.358;2022-12-08T12:20:56;16.77;;;9.33;;
7575;SDS011;3829;50.798;4.358;2022-12-08T12:23:28;16.03;;;8.30;;
7575;SDS011;3829;50.798;4.358;2022-12-08T12:26:03;17.60;;;9.10;;
7575;SDS011;3829;50.798;4.358;2022-12-08T12:28:36;20.90;;;9.87;;
7575;SDS011;3829;50.798;4.358;2022-12-08T12:31:14;19.90;;;9.00;;
7575;SDS011;3829;50.798;4.358;2022-12-08T12:33:42;18.40;;;8.47;;
7575;SDS011;3829;50.798;4.358;2022-12-08T12:36:11;17.80;;;8.77;;
7575;SDS011;3829;50.798;4.358;2022-12-08T12:38:39;22.37;;;8.80;;
7575;SDS011;3829;50.798;4.358;2022-12-08T12:52:00;16.23;;;9.10;;
7575;SDS011;3829;50.798;4.358;2022-12-08T12:54:26;19.03;;;7.87;;
7575;SDS011;3829;50.798;4.358;2022-12-08T13:02:23;15.60;;;9.00;;
7575;SDS011;3829;50.798;4.358;2022-12-08T13:07:59;19.37;;;9.03;;
7575;SDS011;3829;50.798;4.358;2022-12-08T13:10:37;14.73;;;8.50;;
7575;SDS011;3829;50.798;4.358;2022-12-08T13:18:27;17.53;;;9.07;;
7575;SDS011;3829;50.798;4.358;2022-12-08T13:26:20;21.63;;;9.77;;
7575;SDS011;3829;50.798;4.358;2022-12-08T13:37:12;18.03;;;8.43;;
7575;SDS011;3829;50.798;4.358;2022-12-08T13:39:53;15.53;;;8.40;;
7575;SDS011;3829;50.798;4.358;2022-12-08T13:47:38;17.70;;;9.00;;
7575;SDS011;3829;50.798;4.358;2022-12-08T13:50:20;18.50;;;8.73;;
7575;SDS011;3829;50.798;4.358;2022-12-08T13:52:56;17.63;;;8.47;;
7575;SDS011;3829;50.798;4.358;2022-12-08T13:55:34;19.33;;;8.77;;
7575;SDS011;3829;50.798;4.358;2022-12-08T13:58:04;10.90;;;6.43;;
7575;SDS011;3829;50.798;4.358;2022-12-08T14:00:30;10.40;;;6.27;;
7575;SDS011;3829;50.798;4.358;2022-12-08T14:02:57;15.03;;;7.17;;
7575;SDS011;3829;50.798;4.358;2022-12-08T14:05:25;15.00;;;6.90;;
7575;SDS011;3829;50.798;4.358;2022-12-08T14:08:02;11.33;;;6.83;;
7575;SDS011;3829;50.798;4.358;2022-12-08T14:10:31;13.33;;;8.03;;
7575;SDS011;3829;50.798;4.358;2022-12-08T14:13:00;16.07;;;8.50;;
7575;SDS011;3829;50.798;4.358;2022-12-08T14:15:32;12.20;;;7.60;;
7575;SDS011;3829;50.798;4.358;2022-12-08T14:17:58;15.10;;;6.83;;
7575;SDS011;3829;50.798;4.358;2022-12-08T14:22:51;17.10;;;7.70;;
7575;SDS011;3829;50.798;4.358;2022-12-08T14:25:17;12.50;;;6.37;;
7575;SDS011;3829;50.798;4.358;2022-12-08T14:27:44;14.63;;;7.10;;
7575;SDS011;3829;50.798;4.358;2022-12-08T14:32:55;12.07;;;7.40;;
7575;SDS011;3829;50.798;4.358;2022-12-08T14:37:51;20.93;;;8.17;;
7575;SDS011;3829;50.798;4.358;2022-12-08T14:40:35;14.47;;;6.73;;
7575;SDS011;3829;50.798;4.358;2022-12-08T14:45:34;15.10;;;7.67;;
7575;SDS011;3829;50.798;4.358;2022-12-08T14:53:38;15.43;;;8.43;;
7575;SDS011;3829;50.798;4.358;2022-12-08T14:56:14;15.43;;;7.87;;
7575;SDS011;3829;50.798;4.358;2022-12-08T14:58:50;18.43;;;8.70;;
7575;SDS011;3829;50.798;4.358;2022-12-08T15:01:28;15.27;;;7.73;;
7575;SDS011;3829;50.798;4.358;2022-12-08T15:04:28;16.40;;;7.60;;
7575;SDS011;3829;50.798;4.358;2022-12-08T15:06:54;14.47;;;7.53;;
7575;SDS011;3829;50.798;4.358;2022-12-08T15:12:05;22.80;;;8.17;;
7575;SDS011;3829;50.798;4.358;2022-12-08T15:14:39;11.37;;;6.83;;
7575;SDS011;3829;50.798;4.358;2022-12-08T15:22:52;14.13;;;6.83;;
7575;SDS011;3829;50.798;4.358;2022-12-08T15:25:19;11.80;;;7.20;;
7575;SDS011;3829;50.798;4.358;2022-12-08T15:27:45;18.03;;;6.97;;
7575;SDS011;3829;50.798;4.358;2022-12-08T15:30:11;14.80;;;7.23;;
7575;SDS011;3829;50.798;4.358;2022-12-08T15:32:38;14.57;;;7.73;;
7575;SDS011;3829;50.798;4.358;2022-12-08T15:35:04;15.83;;;7.17;;
7575;SDS011;3829;50.798;4.358;2022-12-08T15:37:30;18.10;;;7.43;;
7575;SDS011;3829;50.798;4.358;2022-12-08T15:39:55;12.20;;;7.27;;
7575;SDS011;3829;50.798;4.358;2022-12-08T15:42:21;13.93;;;8.03;;
7575;SDS011;3829;50.798;4.358;2022-12-08T15:44:47;14.37;;;7.17;;
7575;SDS011;3829;50.798;4.358;2022-12-08T15:47:16;12.97;;;7.77;;
7575;SDS011;3829;50.798;4.358;2022-12-08T15:49:45;17.43;;;8.43;;
7575;SDS011;3829;50.798;4.358;2022-12-08T15:52:21;15.50;;;7.67;;
7575;SDS011;3829;50.798;4.358;2022-12-08T15:54:48;14.13;;;8.67;;
7575;SDS011;3829;50.798;4.358;2022-12-08T15:59:47;19.27;;;10.10;;
7575;SDS011;3829;50.798;4.358;2022-12-08T16:02:13;16.43;;;9.40;;
7575;SDS011;3829;50.798;4.358;2022-12-08T16:04:39;15.17;;;9.83;;
7575;SDS011;3829;50.798;4.358;2022-12-08T16:07:05;19.53;;;10.50;;
7575;SDS011;3829;50.798;4.358;2022-12-08T16:09:36;16.80;;;9.40;;
7575;SDS011;3829;50.798;4.358;2022-12-08T16:12:05;15.93;;;9.70;;
7575;SDS011;3829;50.798;4.358;2022-12-08T16:15:09;15.67;;;9.60;;
7575;SDS011;3829;50.798;4.358;2022-12-08T16:17:36;18.23;;;9.93;;
7575;SDS011;3829;50.798;4.358;2022-12-08T16:20:03;19.00;;;10.10;;
7575;SDS011;3829;50.798;4.358;2022-12-08T16:22:31;14.50;;;9.57;;
7575;SDS011;3829;50.798;4.358;2022-12-08T16:24:57;21.67;;;9.60;;
7575;SDS011;3829;50.798;4.358;2022-12-08T16:27:27;14.97;;;9.57;;
7575;SDS011;3829;50.798;4.358;2022-12-08T16:29:54;12.70;;;8.37;;
7575;SDS011;3829;50.798;4.358;2022-12-08T16:32:21;17.70;;;8.27;;
7575;SDS011;3829;50.798;4.358;2022-12-08T16:34:47;10.17;;;6.40;;
7575;SDS011;3829;50.798;4.358;2022-12-08T16:37:17;8.93;;;6.77;;
7575;SDS011;3829;50.798;4.358;2022-12-08T16:39:44;12.93;;;7.13;;
7575;SDS011;3829;50.798;4.358;2022-12-08T16:42:29;12.67;;;7.53;;
7575;SDS011;3829;50.798;4.358;2022-12-08T16:45:11;8.00;;;6.50;;
7575;SDS011;3829;50.798;4.358;2022-12-08T16:47:40;7.37;;;6.20;;
7575;SDS011;3829;50.798;4.358;2022-12-08T16:50:12;13.10;;;7.00;;
7575;SDS011;3829;50.798;4.358;2022-12-08T16:52:37;10.07;;;6.97;;
7575;SDS011;3829;50.798;4.358;2022-12-08T16:55:07;10.80;;;7.27;;
7575;SDS011;3829;50.798;4.358;2022-12-08T16:57:37;11.03;;;7.17;;
7575;SDS011;3829;50.798;4.358;2022-12-08T17:00:04;12.33;;;8.17;;
7575;SDS011;3829;50.798;4.358;2022-12-08T17:02:32;10.87;;;7.97;;
7575;SDS011;3829;50.798;4.358;2022-12-08T17:04:57;11.90;;;7.70;;
7575;SDS011;3829;50.798;4.358;2022-12-08T17:07:23;14.23;;;7.97;;
7575;SDS011;3829;50.798;4.358;2022-12-08T17:09:49;12.23;;;8.17;;
7575;SDS011;3829;50.798;4.358;2022-12-08T17:12:14;11.37;;;8.13;;
7575;SDS011;3829;50.798;4.358;2022-12-08T17:14:40;12.30;;;7.63;;
7575;SDS011;3829;50.798;4.358;2022-12-08T17:17:06;13.70;;;9.37;;
7575;SDS011;3829;50.798;4.358;2022-12-08T17:19:32;12.57;;;9.60;;
7575;SDS011;3829;50.798;4.358;2022-12-08T17:21:58;15.80;;;9.60;;
7575;SDS011;3829;50.798;4.358;2022-12-08T17:24:24;13.30;;;9.10;;
7575;SDS011;3829;50.798;4.358;2022-12-08T17:26:53;12.67;;;9.50;;
7575;SDS011;3829;50.798;4.358;2022-12-08T17:29:21;18.37;;;10.50;;
7575;SDS011;3829;50.798;4.358;2022-12-08T17:31:46;15.10;;;10.03;;